Time;durP1;ratioP1;P1;durP2;ratioP2;P2;SDS_P1;SDS_P2;PMS_P1;PMS_P2;Temp;Humidity;BMP_temperature;BMP_pressure;BME280_temperature;BME280_humidity;BME280_pressure;Samples;Min_cycle;Max_cycle;Signal;HPM_P1;HPM_P2
2022/02/05 00:00:07;;;;;;;;;6.00;5.00;;;;;7.03;63.23;101978.38;5026282;28;45534;-60
2022/02/05 00:01:49;;;;;;;;;5.50;4.50;;;;;7.01;63.56;101993.25;5004351;28;45366;-60
2022/02/05 00:04:16;;;;;;;;;8.50;5.00;;;;;7.02;63.31;101991.50;5002011;28;45391;-59
2022/02/05 00:06:45;;;;;;;;;7.75;3.00;;;;;7.00;63.96;101994.16;5005799;28;45465;-60
2022/02/05 00:09:29;;;;;;;;;6.25;2.25;;;;;6.97;63.60;101995.09;5017754;28;46615;-60
2022/02/05 00:41:33;;;;;;;;;2.25;2.25;;;;;6.84;64.41;101998.91;5012707;28;45428;-62
2022/02/05 00:44:00;;;;;;;;;6.00;2.50;;;;;6.82;64.38;101998.06;5012223;28;45352;-65
2022/02/05 00:46:32;;;;;;;;;6.00;2.25;;;;;6.82;64.14;101997.22;5015043;28;45383;-67
2022/02/05 00:48:58;;;;;;;;;4.00;2.00;;;;;6.80;63.95;102002.50;5012086;28;47352;-64
2022/02/05 00:51:35;;;;;;;;;3.00;2.00;;;;;6.78;63.98;102001.66;5012878;28;45771;-68
2022/02/05 00:54:14;;;;;;;;;2.00;2.00;;;;;6.77;64.14;101994.69;5011188;28;45448;-65
2022/02/05 00:59:24;;;;;;;;;4.00;2.75;;;;;6.77;64.80;101992.06;5013538;28;45880;-64
2022/02/05 01:01:50;;;;;;;;;7.75;3.00;;;;;6.78;64.07;101993.78;5011213;28;45376;-61
2022/02/05 01:04:16;;;;;;;;;5.75;3.00;;;;;6.76;64.43;101995.59;5012510;28;45238;-62
2022/02/05 01:06:42;;;;;;;;;4.00;3.50;;;;;6.75;64.21;102008.72;5016275;28;45364;-63
2022/02/05 01:09:12;;;;;;;;;6.00;4.00;;;;;6.74;64.22;102009.63;5011840;28;45503;-66
2022/02/05 01:11:38;;;;;;;;;5.25;2.00;;;;;6.74;64.92;102007.88;5020212;28;45510;-61
2022/02/05 01:14:07;;;;;;;;;5.00;2.50;;;;;6.75;64.73;102012.22;5013039;28;45476;-65
2022/02/05 01:21:54;;;;;;;;;3.00;2.50;;;;;6.70;64.25;102004.44;5011277;28;45333;-64
2022/02/05 01:24:21;;;;;;;;;7.00;5.00;;;;;6.69;64.44;102004.47;5013654;28;45356;-65
2022/02/05 01:26:54;;;;;;;;;3.00;3.00;;;;;6.66;65.21;102015.91;5011944;28;45697;-63
2022/02/05 01:29:37;;;;;;;;;4.50;3.00;;;;;6.67;65.02;102022.84;5009927;28;45617;-61
2022/02/05 01:32:07;;;;;;;;;7.75;3.50;;;;;6.68;64.31;102028.94;5011066;28;45483;-62
2022/02/05 01:34:41;;;;;;;;;6.25;2.00;;;;;6.66;64.94;102034.22;5009796;28;45406;-63
2022/02/05 01:58:51;;;;;;;;;2.00;2.00;;;;;6.59;64.72;102061.44;5012931;28;45304;-65
2022/02/05 02:07:04;;;;;;;;;7.75;3.00;;;;;6.55;65.03;102058.91;5011196;28;45408;-65
2022/02/05 02:09:47;;;;;;;;;5.00;2.00;;;;;6.54;64.89;102059.81;5010354;28;45524;-65
2022/02/05 02:12:17;;;;;;;;;2.50;1.00;;;;;6.52;64.73;102054.59;5014262;28;45586;-65
2022/02/05 02:15:06;;;;;;;;;2.00;2.00;;;;;6.53;65.12;102071.16;5011559;28;45420;-65
2022/02/05 02:20:47;;;;;;;;;4.50;2.00;;;;;6.49;65.54;102074.75;5012448;28;45226;-65
2022/02/05 02:23:24;;;;;;;;;7.25;3.00;;;;;6.50;65.27;102082.56;5012557;28;45256;-65
2022/02/05 02:26:02;;;;;;;;;3.00;3.00;;;;;6.50;65.02;102079.09;5010795;28;45262;-65
2022/02/05 02:28:43;;;;;;;;;2.75;1.75;;;;;6.49;64.99;102074.75;5010435;28;45332;-65
2022/02/05 02:31:14;;;;;;;;;9.00;3.00;;;;;6.47;65.48;102072.16;5010785;28;45850;-65
2022/02/05 02:33:44;;;;;;;;;4.00;2.25;;;;;6.46;65.22;102070.44;5010199;28;45484;-64
2022/02/05 02:36:18;;;;;;;;;2.00;2.00;;;;;6.47;65.61;102072.16;5012359;28;45479;-65
2022/02/05 02:38:49;;;;;;;;;5.00;4.50;;;;;6.47;65.08;102087.84;5012642;28;45602;-65
2022/02/05 02:41:25;;;;;;;;;3.00;2.50;;;;;6.47;65.04;102092.22;5008214;28;45451;-65
2022/02/05 02:43:50;;;;;;;;;5.00;2.00;;;;;6.46;65.27;102093.13;5010241;28;45505;-65
2022/02/05 02:46:16;;;;;;;;;3.25;2.00;;;;;6.46;64.91;102094.00;5010061;28;45496;-64
2022/02/05 02:48:45;;;;;;;;;7.25;4.00;;;;;6.41;65.09;102081.00;5011689;28;46362;-65
2022/02/05 02:59:37;;;;;;;;;11.00;3.00;;;;;6.37;65.73;102096.78;4990890;28;45404;-65
2022/02/05 03:02:13;;;;;;;;;5.75;3.00;;;;;6.35;65.65;102102.06;4989324;28;45519;-65
2022/02/05 03:04:38;;;;;;;;;3.00;3.00;;;;;6.36;65.82;102101.16;5002146;28;46188;-64
2022/02/05 03:07:05;;;;;;;;;5.00;2.50;;;;;6.35;65.24;102101.22;5007858;28;45393;-65
2022/02/05 03:09:30;;;;;;;;;5.00;2.00;;;;;6.36;65.95;102105.53;5010604;28;45317;-62
2022/02/05 03:11:56;;;;;;;;;4.75;3.00;;;;;6.32;65.44;102098.63;5013340;28;45358;-62
2022/02/05 03:14:22;;;;;;;;;6.00;2.00;;;;;6.32;65.68;102101.25;5011588;28;46339;-65
2022/02/05 03:16:51;;;;;;;;;6.00;2.00;;;;;6.34;65.95;102107.34;5013291;28;45245;-63
2022/02/05 03:19:17;;;;;;;;;5.00;3.50;;;;;6.29;65.86;102115.28;5013239;28;45364;-63
2022/02/05 03:21:43;;;;;;;;;5.50;2.00;;;;;6.29;65.85;102120.50;5010676;28;45444;-63
2022/02/05 03:24:09;;;;;;;;;6.00;3.00;;;;;6.28;65.70;102121.41;5009860;28;45365;-63
2022/02/05 03:26:36;;;;;;;;;3.50;2.00;;;;;6.28;65.99;102128.38;5007796;28;45373;-63
2022/02/05 03:29:06;;;;;;;;;8.00;2.50;;;;;6.27;65.60;102132.75;5010589;28;45280;-63
2022/02/05 03:31:31;;;;;;;;;3.50;2.50;;;;;6.26;65.60;102131.03;5009079;28;45964;-63
2022/02/05 03:33:57;;;;;;;;;4.00;2.75;;;;;6.29;65.75;102123.13;5010382;28;45555;-63
2022/02/05 03:36:22;;;;;;;;;5.00;2.00;;;;;6.28;65.91;102124.00;5012030;28;45422;-63
2022/02/05 03:38:48;;;;;;;;;3.00;3.00;;;;;6.27;66.24;102117.06;5012540;28;45372;-63
2022/02/05 03:41:14;;;;;;;;;5.75;2.00;;;;;6.28;66.07;102129.25;5012174;28;45439;-63
2022/02/05 03:43:39;;;;;;;;;4.50;2.00;;;;;6.27;65.46;102137.13;5009573;28;45288;-63
2022/02/05 03:46:05;;;;;;;;;5.75;2.50;;;;;6.26;65.33;102144.13;5009222;28;45496;-63
2022/02/05 03:48:30;;;;;;;;;6.25;2.25;;;;;6.21;65.74;102143.34;5009273;28;45241;-63
2022/02/05 03:50:56;;;;;;;;;5.75;5.00;;;;;6.17;65.66;102139.06;5008018;28;45153;-64
2022/02/05 03:53:21;;;;;;;;;2.75;2.75;;;;;6.16;66.39;102134.69;5013432;28;46959;-64
2022/02/05 03:55:47;;;;;;;;;8.25;3.00;;;;;6.17;65.84;102135.59;5009823;28;45348;-63
2022/02/05 03:58:13;;;;;;;;;14.25;2.25;;;;;6.17;66.60;102143.44;5011430;28;45285;-64
2022/02/05 04:00:38;;;;;;;;;6.25;2.75;;;;;6.14;66.26;102142.56;5012130;28;45488;-64
2022/02/05 04:03:05;;;;;;;;;3.00;2.00;;;;;6.13;65.91;102140.84;5010804;28;45727;-63
2022/02/05 04:05:31;;;;;;;;;13.75;3.25;;;;;6.11;66.34;102142.66;5012355;28;45344;-64
2022/02/05 04:07:57;;;;;;;;;3.00;2.25;;;;;6.09;66.45;102147.06;5010114;28;45380;-64
2022/02/05 04:10:29;;;;;;;;;2.25;2.25;;;;;6.10;66.40;102151.38;5008784;28;45570;-64
2022/02/05 04:16:00;;;;;;;;;3.50;2.00;;;;;6.10;65.79;102145.31;5012167;28;45499;-64
2022/02/05 04:18:26;;;;;;;;;2.25;2.00;;;;;6.09;65.87;102144.44;5007181;28;45575;-63
2022/02/05 04:20:52;;;;;;;;;9.00;4.50;;;;;6.06;66.68;102144.47;5012139;28;45559;-63
2022/02/05 04:23:18;;;;;;;;;3.50;3.00;;;;;6.05;66.06;102141.91;5011685;28;45448;-64
2022/02/05 04:25:44;;;;;;;;;4.00;3.00;;;;;6.02;66.10;102142.81;5010597;28;45308;-63
2022/02/05 04:28:09;;;;;;;;;9.00;5.00;;;;;6.04;66.23;102142.78;5012919;28;45217;-64
2022/02/05 04:30:36;;;;;;;;;5.00;3.00;;;;;6.02;66.32;102145.44;5010102;28;45251;-64
2022/02/05 04:33:01;;;;;;;;;6.50;3.00;;;;;6.01;66.70;102141.09;5009546;28;45193;-64
2022/02/05 04:35:27;;;;;;;;;7.50;5.00;;;;;6.00;66.70;102139.34;5009314;28;45376;-66
2022/02/05 04:37:55;;;;;;;;;5.50;3.50;;;;;6.00;66.39;102138.47;5010873;28;45274;-65
2022/02/05 04:40:37;;;;;;;;;3.00;2.25;;;;;5.98;67.05;102146.38;5011362;28;45454;-64
2022/02/05 04:46:08;;;;;;;;;4.00;2.00;;;;;5.93;66.49;102149.97;5011346;28;45484;-63
2022/02/05 04:51:15;;;;;;;;;3.50;3.00;;;;;5.92;67.11;102150.84;5008425;28;45653;-63
2022/02/05 05:12:17;;;;;;;;;5.00;3.00;;;;;5.81;67.25;102144.00;5009179;28;45392;-63
2022/02/05 05:20:06;;;;;;;;;4.75;2.00;;;;;5.85;67.37;102161.38;5014059;28;45406;-63
2022/02/05 05:22:32;;;;;;;;;4.25;2.00;;;;;5.85;67.50;102165.75;5013592;28;45792;-63
2022/02/05 05:25:00;;;;;;;;;3.25;3.25;;;;;5.83;67.34;102163.16;5015123;28;45938;-63
2022/02/05 05:27:26;;;;;;;;;5.00;2.00;;;;;5.82;67.25;102163.19;5012912;28;45456;-63
2022/02/05 05:29:52;;;;;;;;;4.50;1.25;;;;;5.81;67.47;102164.94;5013262;28;45439;-64
2022/02/05 05:32:17;;;;;;;;;3.75;2.00;;;;;5.80;67.19;102165.81;5011210;28;45291;-63
2022/02/05 05:34:43;;;;;;;;;0.75;0.75;;;;;5.82;66.85;102165.78;5014281;28;46410;-63
2022/02/05 05:37:08;;;;;;;;;5.00;2.50;;;;;5.81;67.71;102159.69;5012011;28;45450;-63
2022/02/05 05:39:35;;;;;;;;;5.00;2.25;;;;;5.81;67.32;102164.06;5013844;28;45283;-63
2022/02/05 05:42:01;;;;;;;;;5.25;1.75;;;;;5.83;67.72;102160.53;5013424;28;45394;-63
2022/02/05 05:52:14;;;;;;;;;3.25;1.50;;;;;5.84;67.95;102172.72;5011430;28;45326;-63
2022/02/05 05:54:41;;;;;;;;;2.00;1.00;;;;;5.83;68.32;102167.50;5010532;28;45307;-63
2022/02/05 05:57:06;;;;;;;;;5.00;2.00;;;;;5.83;67.62;102163.16;5013042;28;45440;-64
2022/02/05 05:59:32;;;;;;;;;2.00;2.00;;;;;5.85;68.39;102164.00;5012525;28;45266;-63
2022/02/05 06:01:57;;;;;;;;;7.50;1.25;;;;;5.86;68.09;102164.88;5010662;28;45153;-64
2022/02/05 06:04:23;;;;;;;;;5.00;1.00;;;;;5.86;68.07;102173.56;5007836;28;46169;-63
2022/02/05 06:06:48;;;;;;;;;1.50;1.00;;;;;5.85;67.93;102174.47;5013499;28;45344;-63
2022/02/05 06:09:14;;;;;;;;;2.25;1.00;;;;;5.87;68.35;102188.38;5017963;28;45484;-63
2022/02/05 06:11:39;;;;;;;;;5.00;1.00;;;;;5.89;67.88;102186.59;5017127;28;45269;-63
2022/02/05 06:14:05;;;;;;;;;4.25;1.00;;;;;5.90;68.35;102182.22;5022144;28;45368;-63
2022/02/05 06:16:33;;;;;;;;;14.75;9.25;;;;;5.93;67.82;102190.06;5021908;28;45288;-63
2022/02/05 06:18:58;;;;;;;;;4.00;1.00;;;;;5.92;68.17;102193.53;5022484;28;45384;-64
2022/02/05 06:21:24;;;;;;;;;9.00;1.25;;;;;5.94;68.55;102185.69;5007284;28;45514;-63
2022/02/05 06:23:50;;;;;;;;;4.25;2.50;;;;;5.94;68.00;102183.06;5002256;28;46237;-64
2022/02/05 06:26:15;;;;;;;;;2.50;1.00;;;;;5.94;67.96;102201.38;5001636;28;45182;-64
2022/02/05 06:28:41;;;;;;;;;2.50;2.50;;;;;5.94;68.31;102194.41;5002349;28;45537;-64
2022/02/05 06:31:07;;;;;;;;;1.75;1.50;;;;;5.92;68.93;102201.38;5002001;28;45386;-64
2022/02/05 06:33:32;;;;;;;;;5.00;1.50;;;;;5.92;68.21;102198.78;5002089;28;46371;-63
2022/02/05 06:35:58;;;;;;;;;2.00;2.00;;;;;5.91;68.16;102198.81;5002074;28;45476;-64
2022/02/05 06:38:24;;;;;;;;;2.25;2.00;;;;;5.93;68.81;102205.75;5002068;28;45356;-64
2022/02/05 06:40:52;;;;;;;;;8.50;1.00;;;;;5.93;68.12;102208.38;5004784;28;45464;-64
2022/02/05 06:43:18;;;;;;;;;1.75;1.75;;;;;5.92;67.94;102214.47;5002125;28;46148;-64
2022/02/05 06:45:43;;;;;;;;;2.50;1.75;;;;;5.92;67.96;102216.22;5001858;28;45315;-64
2022/02/05 06:48:10;;;;;;;;;2.25;0.75;;;;;5.88;67.54;102225.84;5002304;28;45233;-64
2022/02/05 06:50:36;;;;;;;;;5.00;1.25;;;;;5.86;68.73;102235.47;5001797;28;45546;-64
2022/02/05 06:53:02;;;;;;;;;0.50;0.50;;;;;5.82;68.44;102242.47;5001929;28;46137;-64
2022/02/05 06:55:28;;;;;;;;;5.75;2.00;;;;;5.81;68.74;102243.38;5013624;28;45427;-64
2022/02/05 06:57:54;;;;;;;;;2.25;2.00;;;;;5.78;68.79;102237.34;5008121;28;45542;-64
2022/02/05 07:00:19;;;;;;;;;7.00;2.00;;;;;5.76;68.51;102247.81;5009091;28;45666;-64
2022/02/05 07:02:45;;;;;;;;;4.75;2.00;;;;;5.74;68.18;102251.34;5015478;28;45498;-64
2022/02/05 07:05:11;;;;;;;;;1.25;1.25;;;;;5.73;68.78;102253.09;5020260;28;45333;-64
2022/02/05 07:07:38;;;;;;;;;2.75;1.75;;;;;5.71;68.91;102254.88;5008360;28;45399;-64
2022/02/05 07:10:04;;;;;;;;;2.50;2.50;;;;;5.70;68.77;102261.00;5009006;28;45455;-63
2022/02/05 07:12:31;;;;;;;;;3.50;3.50;;;;;5.70;69.00;102262.75;5013531;28;45412;-64
2022/02/05 07:15:05;;;;;;;;;5.00;2.00;;;;;5.68;68.46;102265.34;5014583;28;45281;-65
2022/02/05 07:17:43;;;;;;;;;6.00;2.00;;;;;5.70;68.59;102265.34;5001590;28;45221;-65
2022/02/05 07:20:25;;;;;;;;;3.25;3.25;;;;;5.70;68.98;102270.59;5012947;28;45269;-67
2022/02/05 07:23:22;;;;;;;;;9.25;4.25;;;;;5.69;68.80;102269.72;5009003;28;45544;-67
2022/02/05 07:31:14;;;;;;;;;4.00;4.00;;;;;5.65;69.10;102272.38;5007908;28;45309;-68
2022/02/05 07:33:39;;;;;;;;;4.75;2.00;;;;;5.65;69.46;102275.88;5008239;28;46256;-68
2022/02/05 07:36:05;;;;;;;;;3.75;3.75;;;;;5.65;69.65;102275.88;5014050;28;45348;-67
2022/02/05 07:38:31;;;;;;;;;7.25;4.00;;;;;5.65;68.98;102277.63;5013592;28;45191;-68
2022/02/05 07:40:56;;;;;;;;;5.00;4.75;;;;;5.65;68.69;102285.47;5011113;28;45579;-68
2022/02/05 07:43:27;;;;;;;;;6.00;2.25;;;;;5.64;68.93;102279.38;5008302;28;46177;-67
2022/02/05 07:45:53;;;;;;;;;6.75;5.00;;;;;5.64;68.36;102287.22;5007605;28;45463;-68
2022/02/05 07:48:18;;;;;;;;;7.25;5.75;;;;;5.65;68.85;102282.84;5007888;28;45470;-67
2022/02/05 07:50:44;;;;;;;;;5.00;5.00;;;;;5.66;69.48;102293.28;5009945;28;45404;-68
2022/02/05 07:53:09;;;;;;;;;5.75;4.25;;;;;5.66;69.30;102289.78;5013516;28;45358;-67
2022/02/05 07:55:34;;;;;;;;;8.50;5.00;;;;;5.68;69.20;102288.03;5014170;28;45518;-67
2022/02/05 07:58:00;;;;;;;;;13.50;10.50;;;;;5.70;69.59;102291.50;5019782;28;45300;-67
2022/02/05 08:00:25;;;;;;;;;8.75;5.75;;;;;5.70;69.57;102275.81;5009656;28;45451;-68
2022/02/05 08:02:52;;;;;;;;;10.00;5.50;;;;;5.75;68.81;102289.66;5014521;28;47568;-68
2022/02/05 08:05:18;;;;;;;;;5.00;3.75;;;;;5.82;69.61;102292.16;5018359;28;45388;-68
2022/02/05 08:07:44;;;;;;;;;2.25;2.25;;;;;5.88;69.31;102283.38;5007190;28;45755;-67
2022/02/05 08:10:10;;;;;;;;;4.75;2.00;;;;;5.93;69.95;102278.97;5017051;28;45623;-67
2022/02/05 08:12:39;;;;;;;;;6.00;3.25;;;;;6.00;69.01;102282.34;5025700;28;45265;-68
2022/02/05 08:15:06;;;;;;;;;2.00;2.00;;;;;6.04;69.25;102276.19;5018301;28;45329;-66
2022/02/05 08:17:34;;;;;;;;;3.50;2.25;;;;;6.09;69.08;102275.25;5013792;28;45547;-65
2022/02/05 08:20:00;;;;;;;;;0.00;0.00;;;;;6.13;69.42;102278.66;5017782;28;44736;-76
2022/02/05 08:22:26;;;;;;;;;7.75;5.25;;;;;6.19;69.53;102275.09;5007638;28;45570;-73
2022/02/05 08:24:52;;;;;;;;;6.50;2.25;;;;;6.25;69.35;102270.63;5009998;28;45490;-75
2022/02/05 08:27:18;;;;;;;;;2.00;2.00;;;;;6.30;69.43;102267.91;5009110;28;45423;-74
2022/02/05 08:29:55;;;;;;;;;7.50;3.00;;;;;6.34;69.80;102267.84;5016761;28;45620;-75
2022/02/05 08:32:24;;;;;;;;;6.00;4.75;;;;;6.40;69.96;102264.25;5012698;28;45471;-77
2022/02/05 08:34:50;;;;;;;;;6.00;2.00;;;;;6.45;69.12;102265.03;5012984;28;45373;-72
2022/02/05 08:37:16;;;;;;;;;2.25;2.25;;;;;6.54;68.81;102267.47;5014238;28;45369;-76
2022/02/05 08:39:43;;;;;;;;;3.00;3.00;;;;;6.60;69.79;102271.75;5013610;28;45443;-72
2022/02/05 08:42:08;;;;;;;;;5.75;5.00;;;;;6.62;69.30;102267.34;5016661;28;45443;-72
2022/02/05 08:44:34;;;;;;;;;5.75;5.00;;;;;6.69;69.63;102272.44;5012942;28;45357;-71
2022/02/05 08:47:00;;;;;;;;;3.00;3.00;;;;;6.76;68.87;102273.19;5015673;28;45407;-73
2022/02/05 08:49:28;;;;;;;;;6.25;4.00;;;;;6.85;69.50;102277.38;5014971;28;45582;-72
2022/02/05 08:51:57;;;;;;;;;8.00;5.00;;;;;6.89;68.87;102279.06;5009243;28;47393;-73
2022/02/05 08:54:24;;;;;;;;;6.00;2.25;;;;;6.94;68.80;102280.69;5011325;28;45355;-73
2022/02/05 08:56:52;;;;;;;;;6.00;3.00;;;;;6.94;68.87;102285.91;5011180;28;45435;-72
2022/02/05 08:59:18;;;;;;;;;3.00;1.00;;;;;6.99;68.79;102285.84;5012041;28;45245;-71
2022/02/05 09:01:58;;;;;;;;;3.25;2.00;;;;;7.02;68.79;102290.16;5011881;28;45213;-72
2022/02/05 09:04:47;;;;;;;;;1.50;1.00;;;;;7.06;68.60;102286.59;5009849;28;45409;-71
2022/02/05 09:07:12;;;;;;;;;1.25;1.25;;;;;7.09;68.79;102286.53;5011024;28;45395;-71
2022/02/05 09:09:58;;;;;;;;;4.50;1.50;;;;;7.14;68.53;102298.66;5010644;28;45813;-71
2022/02/05 09:12:43;;;;;;;;;1.75;1.00;;;;;7.18;68.36;102295.06;5013138;28;45936;-70
2022/02/05 09:15:09;;;;;;;;;1.50;1.00;;;;;7.20;68.42;102292.44;5013107;28;45305;-65
2022/02/05 09:17:35;;;;;;;;;2.00;1.25;;;;;7.25;68.37;102301.03;5012062;28;45348;-65
2022/02/05 09:20:01;;;;;;;;;3.50;1.50;;;;;7.30;68.29;102299.19;5007025;28;45371;-75
2022/02/05 09:22:30;;;;;;;;;4.50;2.00;;;;;7.36;68.21;102296.47;5009245;28;45504;-73
2022/02/05 09:24:58;;;;;;;;;6.25;1.75;;;;;7.41;68.39;102294.59;5012279;28;45467;-72
2022/02/05 09:27:27;;;;;;;;;3.50;2.00;;;;;7.49;68.48;102297.03;5017412;28;45197;-74
2022/02/05 09:30:04;;;;;;;;;10.25;3.00;;;;;7.58;67.95;102296.84;5010459;28;45471;-75
2022/02/05 09:32:30;;;;;;;;;3.00;3.00;;;;;7.63;67.99;102288.88;5011426;28;46015;-80
2022/02/05 09:34:55;;;;;;;;;4.00;3.00;;;;;7.68;67.89;102293.13;5011140;28;45426;-68
2022/02/05 09:37:22;;;;;;;;;4.50;2.25;;;;;7.73;67.68;102288.63;5008822;28;45423;-65
2022/02/05 09:39:48;;;;;;;;;5.75;2.25;;;;;7.81;67.96;102293.69;5009612;28;45531;-68
2022/02/05 09:42:14;;;;;;;;;2.50;1.00;;;;;7.85;67.57;102284.88;5009175;28;45466;-59
2022/02/05 09:44:40;;;;;;;;;7.75;3.00;;;;;7.90;67.70;102288.28;5010459;28;45317;-73
2022/02/05 09:47:06;;;;;;;;;5.00;1.50;;;;;7.96;67.36;102289.88;5014044;28;45404;-70
2022/02/05 09:49:32;;;;;;;;;3.00;2.00;;;;;7.99;67.51;102292.44;5007949;28;45451;-64
2022/02/05 09:52:10;;;;;;;;;5.50;2.00;;;;;8.02;67.29;102294.97;5007557;28;45982;-65
2022/02/05 09:54:37;;;;;;;;;1.67;1.67;;;;;8.06;67.08;102296.66;5007636;28;45478;-69
2022/02/05 09:57:03;;;;;;;;;3.00;3.00;;;;;8.12;67.18;102305.22;5012877;28;45427;-73
2022/02/05 09:59:37;;;;;;;;;3.50;2.50;;;;;8.17;67.09;102296.38;5009938;28;45483;-72
2022/02/05 10:02:20;;;;;;;;;11.50;7.75;;;;;8.22;67.12;102303.25;5010248;28;45484;-76
2022/02/05 10:05:02;;;;;;;;;1.75;1.75;;;;;8.29;66.91;102301.31;5018137;28;45386;-73
2022/02/05 10:07:28;;;;;;;;;4.25;3.00;;;;;8.37;66.79;102299.38;5006668;28;45226;-69
2022/02/05 10:10:00;;;;;;;;;5.00;3.00;;;;;8.44;66.64;102311.47;5010201;28;45272;-81
2022/02/05 10:12:26;;;;;;;;;3.00;1.75;;;;;8.47;66.54;102314.03;5010970;28;45404;-63
2022/02/05 10:14:57;;;;;;;;;3.75;1.75;;;;;8.50;66.48;102315.72;5009514;28;45446;-60
2022/02/05 10:17:51;;;;;;;;;6.00;2.25;;;;;8.55;66.58;102319.09;5005767;28;45410;-62
2022/02/05 10:20:16;;;;;;;;;4.25;2.50;;;;;8.56;66.71;102316.41;5009951;28;45319;-65
2022/02/05 10:22:46;;;;;;;;;2.25;2.00;;;;;8.57;66.31;102318.13;5010250;28;46602;-62
2022/02/05 10:25:24;;;;;;;;;8.00;1.75;;;;;8.60;66.27;102325.94;5007755;28;45282;-59
2022/02/05 10:27:51;;;;;;;;;4.75;2.00;;;;;8.62;66.24;102316.28;5011998;28;45285;-60
2022/02/05 10:30:27;;;;;;;;;6.00;2.00;;;;;8.67;66.02;102329.28;5011574;28;45191;-60
2022/02/05 10:33:20;;;;;;;;;5.00;2.00;;;;;8.72;65.94;102318.66;5010495;28;46171;-67
2022/02/05 10:39:27;;;;;;;;;3.00;2.00;;;;;8.78;65.76;102334.25;5009483;28;45545;-69
2022/02/05 10:44:37;;;;;;;;;5.00;2.50;;;;;8.93;65.22;102349.63;5008095;28;45827;-67
2022/02/05 10:47:04;;;;;;;;;5.00;1.25;;;;;8.99;65.34;102344.19;5009917;28;46339;-67
2022/02/05 10:52:29;;;;;;;;;5.00;2.00;;;;;9.09;64.88;102350.94;5008889;28;45258;-61
2022/02/05 10:55:04;;;;;;;;;2.75;1.25;;;;;9.12;65.45;102342.09;5003666;28;45435;-61
2022/02/05 10:57:54;;;;;;;;;2.00;2.00;;;;;9.14;65.10;102338.50;5004551;28;45495;-63
2022/02/05 11:05:41;;;;;;;;;5.00;1.50;;;;;9.20;64.43;102353.25;5010566;28;45640;-59
2022/02/05 11:08:08;;;;;;;;;5.00;2.00;;;;;9.23;64.84;102354.03;5020496;28;45452;-59
2022/02/05 11:21:13;;;;;;;;;4.75;2.75;;;;;9.50;64.51;102341.88;5009806;28;45451;-59
2022/02/05 11:23:38;;;;;;;;;4.00;3.00;;;;;9.53;64.16;102343.53;5010143;28;45637;-59
2022/02/05 11:26:06;;;;;;;;;3.50;3.00;;;;;9.57;64.12;102342.56;5009334;28;45384;-60
2022/02/05 11:28:44;;;;;;;;;18.00;12.25;;;;;9.63;63.81;102337.09;5013561;28;45542;-61
2022/02/05 11:31:16;;;;;;;;;0.75;0.75;;;;;9.67;63.50;102337.88;5011744;28;45325;-61
2022/02/05 11:33:42;;;;;;;;;2.25;2.00;;;;;9.64;63.21;102328.31;5011501;28;45443;-60
2022/02/05 11:38:45;;;;;;;;;7.50;7.00;;;;;9.65;63.23;102330.03;5006693;28;45461;-61
2022/02/05 11:41:33;;;;;;;;;5.50;2.75;;;;;9.70;63.69;102322.84;5005138;28;45428;-60
2022/02/05 11:44:20;;;;;;;;;3.25;1.00;;;;;9.76;62.94;102332.34;5000187;28;45635;-61
2022/02/05 11:47:08;;;;;;;;;4.75;3.00;;;;;9.81;62.49;102326.94;5009859;28;46114;-60
2022/02/05 11:49:51;;;;;;;;;5.50;1.00;;;;;9.76;62.50;102329.72;5011378;28;45424;-60
2022/02/05 11:52:35;;;;;;;;;6.00;2.00;;;;;9.71;62.07;102328.97;4998982;28;45584;-60
2022/02/05 11:55:02;;;;;;;;;3.00;2.25;;;;;9.71;62.61;102318.44;5018640;28;45631;-60
2022/02/05 11:57:44;;;;;;;;;2.00;0.75;;;;;9.76;62.05;102314.78;5013143;28;45292;-60
2022/02/05 12:00:21;;;;;;;;;1.75;1.00;;;;;9.79;61.96;102311.19;5012026;28;45721;-60
2022/02/05 12:05:25;;;;;;;;;7.00;1.50;;;;;9.82;61.72;102304.97;5018880;28;45258;-60
2022/02/05 12:08:05;;;;;;;;;3.00;2.00;;;;;9.88;61.34;102299.53;5027497;28;45410;-60
2022/02/05 12:10:35;;;;;;;;;3.00;1.00;;;;;9.88;61.48;102295.13;5020502;28;45374;-60
2022/02/05 12:13:21;;;;;;;;;4.25;1.25;;;;;9.91;61.48;102295.03;5020526;28;45285;-61
2022/02/05 12:16:08;;;;;;;;;3.00;2.25;;;;;9.94;60.95;102292.28;5020297;28;45531;-60
2022/02/05 12:19:15;;;;;;;;;1.75;0.00;;;;;9.96;60.98;102287.84;5020031;28;46264;-60
2022/02/05 12:21:56;;;;;;;;;2.25;1.00;;;;;9.99;60.38;102290.38;5020107;28;45383;-60
2022/02/05 12:24:36;;;;;;;;;1.25;1.25;;;;;10.04;60.05;102288.47;5020453;28;45373;-60
2022/02/05 12:27:22;;;;;;;;;2.00;0.25;;;;;10.10;59.51;102292.66;5020450;28;45500;-60
2022/02/05 12:29:47;;;;;;;;;1.00;1.00;;;;;10.08;59.61;102283.94;5020059;28;45433;-60
2022/02/05 12:32:13;;;;;;;;;1.00;1.00;;;;;10.11;59.44;102281.22;5019750;28;45388;-60
2022/02/05 12:34:38;;;;;;;;;4.50;0.25;;;;;10.12;59.31;102277.69;5020239;28;45308;-60
2022/02/05 12:37:05;;;;;;;;;3.00;1.25;;;;;10.15;58.83;102268.81;5019941;28;45650;-60
2022/02/05 12:39:33;;;;;;;;;2.75;0.25;;;;;10.19;58.35;102267.78;5019516;28;45368;-60
2022/02/05 12:42:12;;;;;;;;;1.50;0.00;;;;;10.21;57.57;102266.84;5006575;28;45511;-60
2022/02/05 12:44:39;;;;;;;;;1.00;0.25;;;;;10.26;57.57;102266.69;5000525;28;45296;-60
2022/02/05 12:47:33;;;;;;;;;5.00;1.00;;;;;10.32;56.93;102269.13;5000030;28;45385;-60
2022/02/05 12:50:09;;;;;;;;;2.00;0.00;;;;;10.32;56.14;102264.72;4999868;28;45477;-60
2022/02/05 12:52:36;;;;;;;;;2.00;0.50;;;;;10.36;55.62;102262.00;5006126;28;45297;-60
2022/02/05 12:55:02;;;;;;;;;2.00;1.00;;;;;10.35;55.08;102271.69;5013596;28;45466;-60
2022/02/05 12:57:30;;;;;;;;;0.00;0.00;;;;;10.38;55.34;102276.84;5010084;28;45388;-61
2022/02/05 13:00:03;;;;;;;;;1.50;1.00;;;;;10.46;54.76;102276.59;5001205;28;47088;-59
2022/02/05 13:02:29;;;;;;;;;1.75;1.00;;;;;10.54;55.37;102277.19;5010814;28;45182;-60
2022/02/05 13:04:55;;;;;;;;;1.00;0.00;;;;;10.60;55.23;102277.84;5019648;28;45420;-60
2022/02/05 13:07:26;;;;;;;;;1.50;0.00;;;;;10.68;55.17;102280.22;5019916;28;46597;-60
2022/02/05 13:09:56;;;;;;;;;3.00;1.00;;;;;10.73;54.84;102274.75;5000706;28;46180;-60
2022/02/05 13:12:38;;;;;;;;;0.25;0.25;;;;;10.74;54.77;102269.41;4999882;28;45312;-60
2022/02/05 13:15:29;;;;;;;;;0.75;0.75;;;;;10.76;54.60;102264.97;5007761;28;45665;-60
2022/02/05 13:26:14;;;;;;;;;1.50;1.00;;;;;10.81;54.69;102265.66;5023095;28;45312;-60
2022/02/05 13:36:45;;;;;;;;;4.75;1.00;;;;;10.80;55.16;102247.25;5022544;28;45342;-60
2022/02/05 13:42:04;;;;;;;;;0.50;0.25;;;;;10.79;54.95;102246.41;5007879;28;45252;-60
2022/02/05 13:44:53;;;;;;;;;3.25;2.00;;;;;10.81;54.53;102241.94;5002702;28;45458;-60
2022/02/05 13:47:19;;;;;;;;;4.75;2.50;;;;;10.83;54.54;102234.84;5002371;28;45325;-60
2022/02/05 13:50:21;;;;;;;;;4.25;1.00;;;;;10.84;54.84;102236.56;5002282;28;45540;-60
2022/02/05 13:52:49;;;;;;;;;4.00;2.00;;;;;10.87;54.63;102228.53;4999694;28;45416;-60
2022/02/05 13:55:17;;;;;;;;;1.00;1.00;;;;;10.88;55.00;102232.03;5001923;28;45250;-60
2022/02/05 13:58:05;;;;;;;;;2.75;2.00;;;;;10.86;54.79;102234.72;5014559;28;45298;-60
2022/02/05 14:00:50;;;;;;;;;1.00;0.00;;;;;10.86;54.78;102236.50;5022384;28;45522;-60
2022/02/05 14:03:33;;;;;;;;;3.50;2.00;;;;;10.89;55.06;102233.75;5022260;28;45412;-60
2022/02/05 14:06:16;;;;;;;;;2.50;2.00;;;;;10.93;54.55;102235.38;5021988;28;45539;-60
2022/02/05 14:08:52;;;;;;;;;7.00;1.00;;;;;10.95;54.04;102228.25;5013152;28;45291;-60
2022/02/05 14:11:32;;;;;;;;;3.25;2.00;;;;;10.93;54.20;102238.00;5002437;28;45527;-60
2022/02/05 14:14:02;;;;;;;;;0.00;0.00;;;;;10.88;54.17;102226.75;5012999;28;45538;-60
2022/02/05 14:16:34;;;;;;;;;2.00;1.00;;;;;10.86;54.01;102232.09;5002579;28;45166;-60
2022/02/05 14:19:02;;;;;;;;;1.00;1.00;;;;;10.85;53.78;102226.88;5002426;28;45306;-60
2022/02/05 14:21:33;;;;;;;;;2.00;0.50;;;;;10.86;53.85;102229.47;5002014;28;45444;-60
2022/02/05 14:23:59;;;;;;;;;0.00;0.00;;;;;10.87;53.62;102223.25;5002057;28;46480;-61
2022/02/05 14:26:38;;;;;;;;;3.00;1.00;;;;;10.88;52.71;102230.25;5008894;28;45391;-60
2022/02/05 14:29:05;;;;;;;;;0.00;0.00;;;;;10.88;52.00;102229.38;5001526;28;45340;-60
2022/02/05 14:31:44;;;;;;;;;1.75;0.00;;;;;10.87;51.50;102232.94;5001789;28;45380;-61
2022/02/05 14:42:15;;;;;;;;;1.50;1.00;;;;;10.85;51.01;102230.38;5004005;28;45325;-60
2022/02/05 14:44:40;;;;;;;;;2.00;0.00;;;;;10.85;51.42;102229.50;5001877;28;46485;-60